Time;durP1;ratioP1;P1;durP2;ratioP2;P2;SDS_P1;SDS_P2;PMS_P1;PMS_P2;Temp;Humidity;BMP_temperature;BMP_pressure;BME280_temperature;BME280_humidity;BME280_pressure;Samples;Min_cycle;Max_cycle;Signal;HPM_P1;HPM_P2
2022/08/31 00:05:15;;;;;;;2.80;2.60;;;20.10;99.90;;;;;;472659;251;28879;-69
2022/08/31 00:07:16;;;;;;;2.97;2.77;;;20.10;99.90;;;;;;472593;249;28903;-69
2022/08/31 00:09:18;;;;;;;2.70;2.50;;;20.10;99.90;;;;;;472438;251;28989;-68
2022/08/31 00:11:26;;;;;;;3.10;2.90;;;20.20;99.90;;;;;;472664;249;28891;-69
2022/08/31 00:13:20;;;;;;;3.00;2.70;;;20.20;99.90;;;;;;472262;251;28914;-70
2022/08/31 00:15:22;;;;;;;3.20;2.77;;;20.20;99.90;;;;;;472683;249;28903;-69
2022/08/31 00:17:23;;;;;;;3.97;2.83;;;20.20;99.90;;;;;;472599;249;28934;-69
2022/08/31 00:19:24;;;;;;;3.50;3.20;;;20.20;99.90;;;;;;472683;249;28909;-68
2022/08/31 00:21:25;;;;;;;3.40;3.10;;;20.20;99.90;;;;;;472226;249;29378;-69
2022/08/31 00:23:27;;;;;;;3.03;2.80;;;20.30;99.90;;;;;;472360;249;29414;-73
2022/08/31 00:25:28;;;;;;;2.70;2.50;;;20.30;99.90;;;;;;472659;249;29383;-68
2022/08/31 00:27:29;;;;;;;2.77;2.57;;;20.30;99.90;;;;;;472615;249;28908;-70
2022/08/31 00:29:30;;;;;;;2.80;2.60;;;20.20;99.90;;;;;;472663;250;28946;-68
2022/08/31 00:31:32;;;;;;;2.67;2.47;;;20.20;99.90;;;;;;472676;249;28929;-70
2022/08/31 00:33:35;;;;;;;2.77;2.57;;;20.20;99.90;;;;;;472667;249;28916;-68
2022/08/31 00:35:34;;;;;;;2.70;2.50;;;20.20;99.90;;;;;;472538;251;28914;-69
2022/08/31 00:37:35;;;;;;;3.30;3.00;;;20.20;99.90;;;;;;472515;251;28923;-70
2022/08/31 00:39:37;;;;;;;3.23;3.03;;;20.20;99.90;;;;;;472706;249;28891;-68
2022/08/31 00:41:38;;;;;;;3.97;2.80;;;20.10;99.90;;;;;;472694;249;28995;-69
2022/08/31 00:43:39;;;;;;;3.33;3.03;;;20.10;99.90;;;;;;472683;250;29303;-68
2022/08/31 00:45:40;;;;;;;3.30;3.00;;;20.10;99.90;;;;;;472690;249;29385;-69
2022/08/31 00:47:42;;;;;;;3.30;3.00;;;20.10;99.90;;;;;;472619;249;29502;-70
2022/08/31 00:49:43;;;;;;;3.87;3.57;;;20.10;99.90;;;;;;472703;249;29378;-69
2022/08/31 00:51:44;;;;;;;3.03;2.83;;;20.10;99.90;;;;;;472737;249;29379;-69
2022/08/31 00:53:46;;;;;;;2.90;2.70;;;20.10;99.90;;;;;;472582;249;28793;-68
2022/08/31 00:55:47;;;;;;;3.53;3.23;;;20.10;99.90;;;;;;472625;250;28956;-68
2022/08/31 00:57:48;;;;;;;3.20;2.90;;;20.10;99.90;;;;;;472655;250;28938;-69
2022/08/31 00:59:49;;;;;;;3.03;2.83;;;20.00;99.90;;;;;;472721;249;28895;-68
2022/08/31 01:01:50;;;;;;;3.13;2.83;;;20.00;99.90;;;;;;472742;249;28835;-69
2022/08/31 01:03:52;;;;;;;3.33;3.03;;;20.00;99.90;;;;;;472690;250;28884;-69
2022/08/31 01:05:53;;;;;;;3.43;3.13;;;20.00;99.90;;;;;;472703;249;28863;-69
2022/08/31 01:07:54;;;;;;;3.00;2.80;;;20.00;99.90;;;;;;472643;249;28932;-74
2022/08/31 01:09:55;;;;;;;3.70;3.03;;;19.90;99.90;;;;;;472685;249;29418;-69
2022/08/31 01:11:57;;;;;;;3.50;3.20;;;20.00;99.90;;;;;;472695;249;29390;-70
2022/08/31 01:13:58;;;;;;;3.40;3.20;;;19.90;99.90;;;;;;472699;249;29578;-68
2022/08/31 01:15:59;;;;;;;3.30;3.10;;;19.90;99.90;;;;;;472686;249;29407;-71
2022/08/31 01:18:00;;;;;;;3.63;3.33;;;19.90;99.90;;;;;;472640;249;28922;-71
2022/08/31 01:20:02;;;;;;;3.03;2.83;;;19.80;99.90;;;;;;472662;249;28951;-70
2022/08/31 01:22:03;;;;;;;3.70;3.20;;;19.80;99.90;;;;;;472616;251;28893;-70
2022/08/31 01:24:04;;;;;;;3.40;2.70;;;19.80;99.90;;;;;;472720;249;29014;-71
2022/08/31 01:26:05;;;;;;;4.27;3.37;;;19.80;99.90;;;;;;472674;249;28867;-70
2022/08/31 01:28:07;;;;;;;3.77;3.47;;;19.80;99.90;;;;;;472590;251;29006;-69
2022/08/31 01:30:11;;;;;;;3.30;3.10;;;19.80;99.90;;;;;;472687;249;28977;-70
2022/08/31 01:32:09;;;;;;;3.00;2.80;;;19.70;99.90;;;;;;472569;251;28806;-70
2022/08/31 01:34:10;;;;;;;3.50;3.20;;;19.70;99.90;;;;;;472694;249;29000;-72
2022/08/31 01:36:12;;;;;;;3.20;3.00;;;19.70;99.90;;;;;;472603;249;29317;-69
2022/08/31 01:38:13;;;;;;;3.20;3.00;;;19.70;99.90;;;;;;472677;249;29466;-69
2022/08/31 01:40:14;;;;;;;3.50;3.20;;;19.70;99.90;;;;;;472717;249;29390;-69
2022/08/31 01:42:15;;;;;;;3.70;3.40;;;19.70;99.90;;;;;;472706;249;28875;-68
2022/08/31 01:44:17;;;;;;;3.73;3.43;;;19.70;99.90;;;;;;472671;250;29063;-70
2022/08/31 01:46:18;;;;;;;3.23;3.03;;;19.60;99.90;;;;;;472595;249;28880;-69
2022/08/31 01:48:19;;;;;;;3.37;3.17;;;19.60;99.90;;;;;;472666;249;28910;-70
2022/08/31 01:50:20;;;;;;;3.50;3.20;;;19.60;99.90;;;;;;472722;249;28869;-69
2022/08/31 01:52:22;;;;;;;3.70;3.40;;;19.60;99.90;;;;;;472716;249;28883;-69
2022/08/31 01:54:25;;;;;;;3.20;3.00;;;19.50;99.90;;;;;;472687;249;28990;-70
2022/08/31 01:56:24;;;;;;;3.73;3.43;;;19.40;99.90;;;;;;472433;249;28900;-69
2022/08/31 01:58:25;;;;;;;3.60;3.40;;;19.50;99.90;;;;;;472472;251;28924;-69
2022/08/31 02:00:27;;;;;;;3.60;3.30;;;19.40;99.90;;;;;;472694;249;29501;-69
2022/08/31 02:02:28;;;;;;;3.30;3.10;;;19.40;99.90;;;;;;472668;249;29313;-68
2022/08/31 02:04:29;;;;;;;3.63;3.33;;;19.40;99.90;;;;;;472663;249;29475;-70
2022/08/31 02:06:30;;;;;;;3.10;2.80;;;19.30;99.90;;;;;;472593;249;28893;-69
2022/08/31 02:08:32;;;;;;;3.67;3.37;;;19.30;99.90;;;;;;472678;249;28898;-69
2022/08/31 02:10:33;;;;;;;3.93;3.63;;;19.20;99.90;;;;;;472665;249;28928;-69
2022/08/31 02:12:34;;;;;;;3.60;3.30;;;19.10;99.90;;;;;;472684;249;28919;-69
2022/08/31 02:14:35;;;;;;;3.80;3.50;;;18.90;99.90;;;;;;472679;249;28907;-71
2022/08/31 02:16:37;;;;;;;3.77;3.47;;;18.90;99.90;;;;;;472638;249;28937;-69
2022/08/31 02:18:38;;;;;;;3.50;3.23;;;18.90;99.90;;;;;;472586;249;29007;-68
2022/08/31 02:20:39;;;;;;;3.70;3.40;;;18.90;99.90;;;;;;472666;249;28918;-72
2022/08/31 02:22:40;;;;;;;3.50;3.20;;;18.90;99.90;;;;;;472671;250;28884;-69
2022/08/31 02:24:42;;;;;;;4.13;3.53;;;18.90;99.90;;;;;;472701;249;29440;-71
2022/08/31 02:26:43;;;;;;;4.27;3.87;;;19.00;99.90;;;;;;472472;249;29356;-68
2022/08/31 02:28:44;;;;;;;3.63;3.33;;;19.00;99.90;;;;;;472682;249;29393;-69
2022/08/31 02:30:45;;;;;;;3.33;3.13;;;19.00;99.90;;;;;;472691;250;29445;-68
2022/08/31 02:32:47;;;;;;;4.03;3.73;;;18.90;99.90;;;;;;472379;249;28991;-68
2022/08/31 02:34:48;;;;;;;3.37;3.10;;;18.90;99.90;;;;;;472456;249;28985;-72
2022/08/31 02:36:49;;;;;;;4.40;4.00;;;18.90;99.90;;;;;;472601;249;28866;-69
2022/08/31 02:38:51;;;;;;;3.30;3.10;;;18.90;99.90;;;;;;472677;249;28920;-69
2022/08/31 02:40:52;;;;;;;3.40;3.20;;;18.90;99.90;;;;;;472708;249;29039;-69
2022/08/31 02:42:53;;;;;;;3.40;3.10;;;18.90;99.90;;;;;;472698;249;28980;-69
2022/08/31 02:44:54;;;;;;;3.73;3.43;;;18.90;99.90;;;;;;472698;249;28915;-70
2022/08/31 02:46:56;;;;;;;3.40;3.10;;;18.90;99.90;;;;;;472620;249;28877;-69
2022/08/31 02:48:57;;;;;;;3.67;3.37;;;18.90;99.90;;;;;;472682;249;28975;-69
2022/08/31 02:50:58;;;;;;;3.17;2.97;;;18.90;99.90;;;;;;472691;250;29309;-69
2022/08/31 02:52:59;;;;;;;3.30;3.10;;;18.90;99.90;;;;;;472691;250;29492;-69
2022/08/31 02:55:01;;;;;;;3.23;3.03;;;18.90;99.90;;;;;;472702;249;29494;-73
2022/08/31 02:57:02;;;;;;;3.47;3.17;;;18.90;99.90;;;;;;472628;249;28995;-69
2022/08/31 02:59:03;;;;;;;2.90;2.70;;;18.80;99.90;;;;;;472702;249;28991;-70
2022/08/31 03:01:04;;;;;;;3.37;2.87;;;18.80;99.90;;;;;;472723;249;29386;-69
2022/08/31 03:03:06;;;;;;;3.37;3.07;;;18.80;99.90;;;;;;472689;249;28850;-69
2022/08/31 03:05:07;;;;;;;3.17;2.97;;;18.80;99.90;;;;;;472715;249;28911;-72
2022/08/31 03:07:08;;;;;;;3.13;2.93;;;18.80;99.90;;;;;;472389;249;28985;-69
2022/08/31 03:09:09;;;;;;;3.27;3.07;;;18.80;99.90;;;;;;472694;249;28932;-70
2022/08/31 03:11:11;;;;;;;3.60;3.33;;;18.80;99.90;;;;;;472680;249;28860;-69
2022/08/31 03:13:12;;;;;;;3.70;3.40;;;18.80;99.90;;;;;;472639;249;28973;-68
2022/08/31 03:15:13;;;;;;;3.40;3.20;;;18.70;99.90;;;;;;472678;250;29359;-71
2022/08/31 03:17:14;;;;;;;3.27;3.07;;;18.60;99.90;;;;;;472534;249;29545;-69
2022/08/31 03:19:16;;;;;;;4.10;3.77;;;18.70;99.90;;;;;;472646;249;29397;-70
2022/08/31 03:21:17;;;;;;;3.50;3.20;;;18.70;99.90;;;;;;472676;249;28877;-71
2022/08/31 03:23:18;;;;;;;3.70;3.40;;;18.60;99.90;;;;;;472680;249;28936;-69
2022/08/31 03:25:19;;;;;;;3.63;3.43;;;18.60;99.90;;;;;;472664;249;29011;-72
2022/08/31 03:27:21;;;;;;;3.73;3.43;;;18.60;99.90;;;;;;472599;249;28871;-69
2022/08/31 03:29:22;;;;;;;3.57;3.37;;;18.50;99.90;;;;;;472653;249;28985;-69
2022/08/31 03:31:23;;;;;;;3.53;3.23;;;18.60;99.90;;;;;;472645;251;29006;-69
2022/08/31 03:33:24;;;;;;;4.03;3.73;;;18.60;99.90;;;;;;472659;249;28924;-69
2022/08/31 03:35:26;;;;;;;3.63;3.43;;;18.60;99.90;;;;;;472670;249;28983;-73
2022/08/31 03:37:27;;;;;;;4.20;3.57;;;18.60;99.90;;;;;;472603;249;28880;-68
2022/08/31 03:39:28;;;;;;;4.00;3.70;;;18.60;99.90;;;;;;472674;249;29351;-71
2022/08/31 03:41:29;;;;;;;3.83;3.63;;;18.50;99.90;;;;;;472686;249;29309;-69
2022/08/31 03:43:31;;;;;;;3.60;3.30;;;18.50;99.90;;;;;;472685;249;29362;-69
2022/08/31 03:45:33;;;;;;;3.70;3.40;;;18.50;99.90;;;;;;472727;249;29381;-72
2022/08/31 03:47:34;;;;;;;3.30;3.10;;;18.50;99.90;;;;;;472599;251;28888;-69
2022/08/31 03:49:34;;;;;;;5.93;3.10;;;18.50;99.90;;;;;;472042;251;28983;-69
2022/08/31 03:51:36;;;;;;;5.20;3.80;;;18.60;99.90;;;;;;472122;249;28806;-69
2022/08/31 03:53:37;;;;;;;3.67;3.37;;;18.50;99.90;;;;;;472662;249;28950;-70
2022/08/31 03:55:38;;;;;;;3.40;3.20;;;18.60;99.90;;;;;;472709;249;29280;-72
2022/08/31 03:57:39;;;;;;;3.03;2.83;;;18.50;99.90;;;;;;472654;249;28886;-69
2022/08/31 03:59:41;;;;;;;3.63;3.33;;;18.50;99.90;;;;;;472661;250;28917;-69
2022/08/31 04:01:42;;;;;;;3.50;3.20;;;18.50;99.90;;;;;;472669;249;29327;-69
2022/08/31 04:03:43;;;;;;;4.23;3.93;;;18.50;99.90;;;;;;472649;249;29535;-68
2022/08/31 04:05:44;;;;;;;3.47;3.17;;;18.40;99.90;;;;;;472691;249;29500;-73
2022/08/31 04:07:46;;;;;;;3.97;3.57;;;18.40;99.90;;;;;;472658;249;29319;-69
2022/08/31 04:09:47;;;;;;;3.80;3.50;;;18.40;99.90;;;;;;472702;249;28987;-70
2022/08/31 04:11:48;;;;;;;4.97;4.10;;;18.40;99.90;;;;;;472706;249;28978;-69
2022/08/31 04:13:49;;;;;;;3.60;3.30;;;18.40;99.90;;;;;;472718;249;28923;-71
2022/08/31 04:15:51;;;;;;;3.57;3.30;;;18.40;99.90;;;;;;472723;249;29255;-72
2022/08/31 04:17:52;;;;;;;3.33;3.13;;;18.40;99.90;;;;;;472684;249;28891;-68
2022/08/31 04:19:53;;;;;;;4.10;3.80;;;18.40;99.90;;;;;;472745;250;28879;-70
2022/08/31 04:21:56;;;;;;;4.00;3.70;;;18.40;99.90;;;;;;472726;250;29019;-68
2022/08/31 04:23:56;;;;;;;3.90;3.60;;;18.30;99.90;;;;;;472641;251;28872;-68
2022/08/31 04:25:57;;;;;;;4.00;3.73;;;18.30;99.90;;;;;;472729;249;29398;-71
2022/08/31 04:28:00;;;;;;;3.70;3.50;;;18.20;99.90;;;;;;472661;249;29452;-69
2022/08/31 04:30:00;;;;;;;3.70;3.40;;;18.20;99.90;;;;;;472617;251;29395;-69
2022/08/31 04:32:01;;;;;;;3.97;3.67;;;18.10;99.90;;;;;;472680;249;29323;-69
2022/08/31 04:34:02;;;;;;;3.80;3.50;;;18.10;99.90;;;;;;472563;249;28990;-70
2022/08/31 04:36:03;;;;;;;3.83;3.63;;;18.10;99.90;;;;;;472669;251;29006;-72
2022/08/31 04:38:04;;;;;;;3.77;3.47;;;18.10;99.90;;;;;;472673;249;29017;-68
2022/08/31 04:40:06;;;;;;;3.90;3.60;;;18.00;99.90;;;;;;472694;249;28926;-69
2022/08/31 04:42:09;;;;;;;3.30;3.10;;;18.00;99.90;;;;;;472683;249;28884;-69
2022/08/31 04:44:10;;;;;;;4.30;3.90;;;18.00;99.90;;;;;;472571;251;28934;-69
2022/08/31 04:46:09;;;;;;;6.30;3.80;;;17.80;99.90;;;;;;472558;251;28987;-71
2022/08/31 04:48:11;;;;;;;3.80;3.50;;;17.80;99.90;;;;;;472621;249;28967;-69
2022/08/31 04:50:12;;;;;;;5.40;4.53;;;17.70;99.90;;;;;;472619;249;29399;-69
2022/08/31 04:52:13;;;;;;;5.10;3.63;;;17.80;99.90;;;;;;472621;249;30228;-68
2022/08/31 04:54:14;;;;;;;4.23;3.93;;;17.90;99.90;;;;;;472655;250;29388;-69
2022/08/31 04:56:16;;;;;;;4.00;3.60;;;17.90;99.90;;;;;;472613;249;29519;-71
2022/08/31 04:58:19;;;;;;;4.70;4.30;;;17.90;99.90;;;;;;472687;249;28955;-68
2022/08/31 05:00:18;;;;;;;5.50;4.43;;;17.90;99.90;;;;;;472583;249;28928;-70
2022/08/31 05:02:19;;;;;;;4.27;3.97;;;18.00;99.90;;;;;;472694;249;28910;-68
2022/08/31 05:04:27;;;;;;;4.50;4.03;;;18.00;99.90;;;;;;472725;249;28796;-69
2022/08/31 05:06:22;;;;;;;4.10;3.80;;;18.00;99.90;;;;;;472338;251;28811;-69
2022/08/31 05:08:24;;;;;;;4.30;4.00;;;18.00;99.90;;;;;;472710;249;28879;-69
2022/08/31 05:10:24;;;;;;;3.93;3.63;;;18.00;99.90;;;;;;472667;249;28931;-70
2022/08/31 05:12:26;;;;;;;4.00;3.70;;;17.90;99.90;;;;;;472709;250;28958;-69
2022/08/31 05:14:27;;;;;;;3.93;3.63;;;17.90;99.90;;;;;;472687;249;28888;-69
2022/08/31 05:16:29;;;;;;;4.27;3.97;;;17.90;99.90;;;;;;472646;249;29407;-71
2022/08/31 05:18:29;;;;;;;4.30;4.00;;;17.90;99.90;;;;;;472666;249;29328;-69
2022/08/31 05:20:31;;;;;;;4.70;4.30;;;17.90;99.90;;;;;;472668;249;29378;-70
2022/08/31 05:22:32;;;;;;;4.60;4.20;;;17.80;99.90;;;;;;472665;249;28787;-69
2022/08/31 05:24:36;;;;;;;5.40;3.53;;;17.80;99.90;;;;;;472653;250;28939;-68
2022/08/31 05:26:34;;;;;;;4.33;3.70;;;17.80;99.90;;;;;;472511;251;28999;-72
2022/08/31 05:28:36;;;;;;;4.30;4.00;;;17.80;99.90;;;;;;472673;249;28875;-69
2022/08/31 05:30:37;;;;;;;4.50;4.10;;;17.80;99.90;;;;;;472702;249;29001;-70
2022/08/31 05:32:38;;;;;;;4.60;4.20;;;17.90;99.90;;;;;;472673;249;28884;-69
2022/08/31 05:34:39;;;;;;;4.20;3.80;;;17.80;99.90;;;;;;472647;249;28993;-68
2022/08/31 05:36:41;;;;;;;7.50;4.33;;;17.90;99.90;;;;;;472625;249;28895;-71
2022/08/31 05:38:42;;;;;;;5.57;4.30;;;17.80;99.90;;;;;;472690;249;28957;-69
2022/08/31 05:40:43;;;;;;;4.73;4.33;;;17.80;99.90;;;;;;472675;250;29365;-69
2022/08/31 05:42:44;;;;;;;6.10;4.30;;;17.80;99.90;;;;;;472687;249;29303;-69
2022/08/31 05:44:46;;;;;;;6.00;4.83;;;17.90;99.90;;;;;;472687;249;29354;-69
2022/08/31 05:46:47;;;;;;;8.20;4.33;;;17.90;99.90;;;;;;472650;249;29457;-71
2022/08/31 05:48:48;;;;;;;5.17;4.13;;;17.90;99.90;;;;;;472684;251;28869;-69
2022/08/31 05:50:50;;;;;;;4.20;3.90;;;17.90;99.90;;;;;;472693;249;28932;-70
2022/08/31 05:52:51;;;;;;;4.20;3.80;;;17.90;99.90;;;;;;472672;249;28856;-69
2022/08/31 05:54:52;;;;;;;5.43;4.07;;;18.00;99.90;;;;;;472673;249;28959;-68
2022/08/31 05:56:53;;;;;;;4.47;4.03;;;17.90;99.90;;;;;;472622;250;29008;-72
2022/08/31 05:58:54;;;;;;;4.77;4.27;;;17.80;99.90;;;;;;472665;249;28923;-69
2022/08/31 06:00:56;;;;;;;9.57;4.83;;;17.80;99.90;;;;;;472696;249;28938;-70
2022/08/31 06:02:57;;;;;;;5.67;4.40;;;17.80;99.90;;;;;;472710;249;28881;-67
2022/08/31 06:04:58;;;;;;;6.10;4.57;;;17.80;99.90;;;;;;472633;249;29418;-68
2022/08/31 06:06:59;;;;;;;4.47;4.03;;;17.80;99.90;;;;;;472630;249;29383;-71
2022/08/31 06:09:01;;;;;;;4.03;3.63;;;17.90;99.90;;;;;;472665;249;29358;-69
2022/08/31 06:11:02;;;;;;;4.80;4.20;;;17.90;99.90;;;;;;472685;249;29560;-68
2022/08/31 06:13:04;;;;;;;7.13;3.90;;;17.90;99.90;;;;;;472549;249;28907;-68
2022/08/31 06:15:04;;;;;;;4.67;4.03;;;17.90;99.90;;;;;;472551;249;28920;-69
2022/08/31 06:17:06;;;;;;;9.37;4.27;;;18.00;99.90;;;;;;472435;249;28937;-73
2022/08/31 06:19:07;;;;;;;4.83;4.20;;;18.00;99.90;;;;;;472637;249;28886;-69
2022/08/31 06:21:08;;;;;;;4.43;4.03;;;18.00;99.90;;;;;;472672;249;28934;-69
2022/08/31 06:23:09;;;;;;;4.70;4.17;;;18.10;99.90;;;;;;472660;251;28867;-69
2022/08/31 06:25:14;;;;;;;5.93;4.17;;;18.10;99.90;;;;;;472699;249;28955;-70
2022/08/31 06:27:12;;;;;;;6.60;4.23;;;18.10;99.90;;;;;;472503;251;28917;-71
2022/08/31 06:29:14;;;;;;;4.90;4.43;;;18.10;99.90;;;;;;472699;249;28868;-69
2022/08/31 06:31:15;;;;;;;5.10;4.53;;;18.20;99.90;;;;;;472610;251;29482;-69
2022/08/31 06:33:16;;;;;;;6.23;5.30;;;18.30;99.90;;;;;;472684;249;29329;-70
2022/08/31 06:35:17;;;;;;;6.37;4.43;;;18.20;99.90;;;;;;472680;251;29339;-69
2022/08/31 06:37:18;;;;;;;6.10;4.63;;;18.10;99.90;;;;;;472625;249;28935;-72
2022/08/31 06:39:19;;;;;;;6.10;4.73;;;18.10;99.90;;;;;;472681;249;28913;-68
2022/08/31 06:41:21;;;;;;;7.30;4.50;;;18.10;99.90;;;;;;472663;249;28922;-69
2022/08/31 06:43:22;;;;;;;5.30;4.80;;;18.20;99.90;;;;;;472675;249;28849;-68
2022/08/31 06:45:23;;;;;;;6.03;5.00;;;18.30;99.90;;;;;;472680;249;28946;-69
2022/08/31 06:47:25;;;;;;;4.67;4.30;;;18.20;99.90;;;;;;472607;249;28954;-71
2022/08/31 06:49:26;;;;;;;5.17;4.07;;;18.40;99.90;;;;;;472661;249;28987;-69
2022/08/31 06:51:27;;;;;;;6.57;4.63;;;18.40;99.90;;;;;;472663;250;28990;-69
2022/08/31 06:53:28;;;;;;;4.70;4.30;;;18.60;99.90;;;;;;472614;251;28933;-69
2022/08/31 06:55:30;;;;;;;5.63;4.37;;;18.60;99.90;;;;;;472679;249;29328;-69
2022/08/31 06:57:31;;;;;;;4.43;4.03;;;18.70;99.90;;;;;;472570;249;29438;-72
2022/08/31 06:59:32;;;;;;;10.10;4.77;;;18.70;99.90;;;;;;472701;249;29359;-69
2022/08/31 07:01:33;;;;;;;4.57;4.17;;;18.50;99.90;;;;;;472671;249;28919;-69
2022/08/31 07:03:35;;;;;;;4.67;4.17;;;18.40;99.90;;;;;;472672;249;28921;-69
2022/08/31 07:05:36;;;;;;;4.67;4.23;;;18.50;99.90;;;;;;472679;250;28871;-69
2022/08/31 07:07:37;;;;;;;6.10;4.23;;;18.60;99.90;;;;;;472612;251;29571;-69
2022/08/31 07:09:39;;;;;;;5.37;4.30;;;18.60;99.90;;;;;;472681;249;28866;-69
2022/08/31 07:11:40;;;;;;;6.60;4.77;;;18.40;99.90;;;;;;472617;251;28919;-70
2022/08/31 07:13:41;;;;;;;5.60;4.17;;;18.50;99.90;;;;;;472673;249;28938;-72
2022/08/31 07:15:42;;;;;;;6.80;4.43;;;18.40;99.90;;;;;;472699;249;28882;-69
2022/08/31 07:17:43;;;;;;;4.73;4.17;;;18.50;99.90;;;;;;472605;249;29102;-70
2022/08/31 07:19:45;;;;;;;7.30;4.60;;;18.60;99.90;;;;;;472667;249;29476;-70
2022/08/31 07:21:46;;;;;;;5.00;4.40;;;18.60;99.90;;;;;;472648;249;29407;-69
2022/08/31 07:23:48;;;;;;;5.90;3.53;;;18.60;99.90;;;;;;472682;249;29489;-72
2022/08/31 07:25:48;;;;;;;4.37;3.80;;;18.60;99.90;;;;;;472675;249;28892;-69
2022/08/31 07:27:52;;;;;;;5.20;4.23;;;18.70;99.90;;;;;;472355;249;28926;-71
2022/08/31 07:29:51;;;;;;;5.57;4.10;;;18.70;99.90;;;;;;472623;249;28877;-69
2022/08/31 07:31:54;;;;;;;5.80;4.50;;;18.80;99.90;;;;;;472685;249;28919;-69
2022/08/31 07:33:54;;;;;;;5.20;4.70;;;18.80;99.90;;;;;;472579;251;28937;-69
2022/08/31 07:35:55;;;;;;;6.17;4.13;;;18.70;99.90;;;;;;472635;251;28927;-69
2022/08/31 07:42:22;;;;;;;6.67;4.00;;;19.20;99.90;;;;;;472664;251;28976;-69
2022/08/31 07:44:24;;;;;;;4.07;3.70;;;19.40;99.90;;;;;;472705;249;28865;-72
2022/08/31 07:46:30;;;;;;;5.07;3.63;;;19.40;99.90;;;;;;472608;249;28897;-69
2022/08/31 07:48:26;;;;;;;4.33;4.03;;;19.40;99.90;;;;;;472438;251;28911;-69
2022/08/31 07:50:30;;;;;;;4.73;4.03;;;19.50;99.90;;;;;;472716;250;28868;-69
2022/08/31 07:52:29;;;;;;;4.40;4.00;;;19.70;99.90;;;;;;472577;251;28802;-70
2022/08/31 07:54:31;;;;;;;4.30;3.87;;;19.80;99.90;;;;;;472679;249;29008;-72
2022/08/31 07:56:32;;;;;;;5.23;4.30;;;19.60;99.90;;;;;;472393;251;28952;-70
2022/08/31 07:58:33;;;;;;;5.53;4.23;;;19.80;99.90;;;;;;472661;251;28903;-70
2022/08/31 08:00:34;;;;;;;4.67;4.27;;;19.70;99.90;;;;;;472638;249;29229;-69
2022/08/31 08:02:38;;;;;;;5.30;4.47;;;19.70;99.90;;;;;;472669;249;29291;-70
2022/08/31 08:04:41;;;;;;;4.53;4.13;;;19.70;99.90;;;;;;472551;251;29301;-73
2022/08/31 08:06:37;;;;;;;5.33;4.53;;;20.00;99.90;;;;;;472397;251;29243;-69
2022/08/31 08:08:40;;;;;;;4.40;4.00;;;20.30;99.90;;;;;;472704;249;28939;-70
2022/08/31 08:10:40;;;;;;;4.90;4.33;;;20.20;99.90;;;;;;472674;250;28888;-69
2022/08/31 08:12:41;;;;;;;4.57;3.93;;;20.10;99.90;;;;;;472698;249;28926;-70
2022/08/31 08:14:42;;;;;;;6.10;3.87;;;20.20;99.90;;;;;;472698;249;28907;-72
2022/08/31 08:16:44;;;;;;;3.97;3.67;;;20.40;99.90;;;;;;472658;249;28882;-69
2022/08/31 08:18:45;;;;;;;5.93;4.47;;;20.40;99.90;;;;;;472706;249;28909;-69
2022/08/31 08:20:46;;;;;;;4.87;4.37;;;20.40;99.90;;;;;;472718;249;28852;-69
2022/08/31 08:22:48;;;;;;;5.40;4.47;;;20.30;99.90;;;;;;472663;249;28895;-70
2022/08/31 08:24:49;;;;;;;5.80;4.60;;;20.20;99.90;;;;;;472653;249;29436;-72
2022/08/31 08:26:51;;;;;;;5.13;4.63;;;20.20;99.90;;;;;;472615;249;29328;-69
2022/08/31 08:28:51;;;;;;;5.57;4.10;;;20.30;99.90;;;;;;472658;250;29499;-70
2022/08/31 08:30:55;;;;;;;5.30;3.87;;;20.10;99.90;;;;;;472684;249;29329;-69
2022/08/31 08:32:54;;;;;;;4.70;4.10;;;20.10;99.90;;;;;;472535;251;28971;-70
2022/08/31 08:34:55;;;;;;;9.00;4.53;;;19.90;99.90;;;;;;472692;249;28947;-71
2022/08/31 08:36:56;;;;;;;5.77;4.50;;;20.00;99.90;;;;;;472650;249;28881;-69
2022/08/31 08:38:58;;;;;;;5.40;4.90;;;19.90;99.90;;;;;;472681;249;28907;-71
2022/08/31 08:40:59;;;;;;;5.60;4.40;;;20.00;99.90;;;;;;472536;249;28796;-69
2022/08/31 08:43:03;;;;;;;6.90;4.53;;;20.10;99.90;;;;;;472688;249;28907;-69
2022/08/31 08:45:01;;;;;;;6.40;4.50;;;20.10;99.90;;;;;;472562;251;28924;-72
2022/08/31 08:47:02;;;;;;;5.80;4.70;;;20.10;99.90;;;;;;472627;250;28876;-70
2022/08/31 08:49:04;;;;;;;4.63;4.20;;;20.10;99.90;;;;;;472716;249;29002;-70
2022/08/31 08:51:08;;;;;;;7.00;4.47;;;20.00;99.90;;;;;;472717;249;29515;-69
2022/08/31 08:53:06;;;;;;;4.67;4.20;;;20.30;99.90;;;;;;472566;251;29330;-70
2022/08/31 08:55:07;;;;;;;6.70;4.87;;;20.50;99.90;;;;;;472675;249;29565;-71
2022/08/31 08:57:12;;;;;;;4.90;4.43;;;20.30;99.90;;;;;;472628;249;28978;-69
2022/08/31 08:59:11;;;;;;;6.00;5.00;;;20.30;99.90;;;;;;472556;249;28927;-70
2022/08/31 09:01:12;;;;;;;7.70;5.23;;;20.40;99.90;;;;;;472630;251;28959;-69
2022/08/31 09:03:13;;;;;;;5.30;4.80;;;20.40;99.90;;;;;;472657;249;28893;-70
2022/08/31 09:05:14;;;;;;;7.60;5.00;;;20.20;99.90;;;;;;472697;250;28907;-72
2022/08/31 09:07:21;;;;;;;5.53;4.67;;;20.20;99.90;;;;;;472629;249;28833;-69
2022/08/31 09:09:17;;;;;;;5.07;4.50;;;20.60;99.90;;;;;;472305;251;28998;-69
2022/08/31 09:11:17;;;;;;;4.50;4.10;;;20.90;99.90;;;;;;472542;249;28873;-70
2022/08/31 09:13:19;;;;;;;4.70;4.30;;;20.90;99.90;;;;;;472698;249;28918;-69
2022/08/31 09:15:25;;;;;;;5.60;5.03;;;20.70;99.90;;;;;;472694;249;29352;-73
2022/08/31 09:17:23;;;;;;;6.17;5.57;;;20.30;99.90;;;;;;472361;251;29437;-69
2022/08/31 09:19:23;;;;;;;5.10;4.57;;;20.00;99.90;;;;;;472637;249;29386;-70
2022/08/31 09:21:24;;;;;;;4.60;4.20;;;20.20;99.90;;;;;;472684;249;28954;-69
2022/08/31 09:23:28;;;;;;;5.20;4.30;;;20.30;99.90;;;;;;472674;249;28911;-70
2022/08/31 09:25:31;;;;;;;5.63;5.13;;;20.20;99.90;;;;;;472520;251;28912;-73
2022/08/31 09:27:31;;;;;;;6.13;5.53;;;20.20;99.90;;;;;;472405;251;28891;-69
2022/08/31 09:29:29;;;;;;;6.85;5.05;;;20.10;99.90;;;;;;468880;251;36473;-71
2022/08/31 09:31:35;;;;;;;7.53;5.73;;;19.90;99.90;;;;;;472703;249;27521;-69
2022/08/31 09:33:31;;;;;;;5.10;4.70;;;19.90;99.90;;;;;;472055;251;28907;-70
2022/08/31 09:35:39;;;;;;;5.17;4.77;;;20.10;99.90;;;;;;472700;250;28986;-72
2022/08/31 09:37:44;;;;;;;5.50;5.00;;;20.30;99.90;;;;;;472340;251;29010;-69
2022/08/31 09:39:36;;;;;;;8.60;4.77;;;20.20;99.90;;;;;;472075;251;29372;-70
2022/08/31 09:41:36;;;;;;;6.57;5.37;;;20.30;99.90;;;;;;472698;250;29242;-69
2022/08/31 09:43:38;;;;;;;7.20;5.27;;;20.10;99.90;;;;;;472686;249;29377;-70
2022/08/31 09:45:39;;;;;;;6.03;4.73;;;20.10;99.90;;;;;;472704;249;28924;-73
2022/08/31 09:47:54;;;;;;;5.70;5.00;;;20.20;99.90;;;;;;472649;249;28903;-69
2022/08/31 09:49:54;;;;;;;4.80;4.30;;;20.30;99.90;;;;;;472585;251;28947;-70
2022/08/31 09:51:55;;;;;;;4.50;4.20;;;20.60;99.90;;;;;;472724;249;28973;-73
2022/08/31 09:55:58;;;;;;;4.83;4.43;;;21.40;99.90;;;;;;467510;251;29025;-71
2022/08/31 09:58:03;;;;;;;5.23;4.50;;;21.50;99.90;;;;;;472639;250;28889;-69
2022/08/31 10:00:00;;;;;;;4.33;3.97;;;21.20;99.90;;;;;;472491;251;28939;-69
2022/08/31 10:02:01;;;;;;;4.53;4.13;;;21.00;99.90;;;;;;472682;249;28962;-73
2022/08/31 10:04:02;;;;;;;4.40;4.07;;;21.00;99.90;;;;;;472690;249;28952;-69
2022/08/31 10:06:05;;;;;;;5.10;4.70;;;21.00;99.90;;;;;;472660;249;29391;-71
2022/08/31 10:08:05;;;;;;;4.90;4.50;;;21.10;99.90;;;;;;472647;249;29307;-69
2022/08/31 10:10:07;;;;;;;5.50;5.00;;;21.00;99.90;;;;;;472676;250;29398;-69
2022/08/31 10:12:07;;;;;;;4.60;4.17;;;20.90;99.90;;;;;;472674;249;29042;-73
2022/08/31 10:14:09;;;;;;;5.00;4.40;;;20.80;99.90;;;;;;472688;249;28889;-70
2022/08/31 10:16:13;;;;;;;6.10;4.13;;;21.20;99.90;;;;;;472627;249;28907;-70
2022/08/31 10:18:12;;;;;;;5.07;4.23;;;21.40;99.90;;;;;;472539;251;28881;-70
2022/08/31 10:20:14;;;;;;;3.87;3.23;;;21.40;99.90;;;;;;472604;251;28937;-70
2022/08/31 10:22:24;;;;;;;5.60;4.03;;;21.70;99.90;;;;;;472614;249;29280;-72
2022/08/31 10:24:27;;;;;;;4.37;4.00;;;21.90;99.90;;;;;;472061;251;28942;-70
2022/08/31 10:26:30;;;;;;;4.30;3.80;;;21.70;99.90;;;;;;472337;251;29403;-70
2022/08/31 10:28:24;;;;;;;4.40;4.00;;;21.60;99.90;;;;;;472268;251;29331;-69
2022/08/31 10:30:26;;;;;;;4.67;4.27;;;21.80;99.90;;;;;;472642;249;29008;-70
2022/08/31 10:32:26;;;;;;;4.30;3.90;;;21.80;99.90;;;;;;472623;249;28940;-69
2022/08/31 10:36:46;;;;;;;5.60;4.20;;;21.60;99.90;;;;;;472601;251;28947;-70
2022/08/31 10:38:48;;;;;;;5.33;4.50;;;21.50;99.90;;;;;;472670;249;28960;-69
2022/08/31 10:40:50;;;;;;;4.10;3.80;;;21.70;99.90;;;;;;472672;249;28923;-70
2022/08/31 10:42:58;;;;;;;3.90;3.50;;;22.10;99.90;;;;;;472663;249;29288;-73
2022/08/31 10:44:55;;;;;;;4.00;3.60;;;22.40;99.90;;;;;;472270;251;28880;-70